Share

Cordova, AK

8:29 AM AKDT on April 23, 2014 (GMT -0800)
Cordova-Smith (PACV) Elev 43 ft | 60.49 °N, 145.45 °W | Change Station

Current weather conditions updated 36 minutes ago

Overcast
Overcast
38 °F
Feels Like 38 °F
N
0
Wind Variable Wind from North
Sunrise 6:00 AM
Sunset 9:24 PM
Moon Waning Crescent

Today is forecast to be Cooler than yesterday.

Pressure 29.76 in
Visibility 10.0 miles
Clouds Overcast 1300 ft
Dew Point 35 °F
Humidity 89%
Rainfall 0.00 in
Snow Depth Not available.
UV 0 out of 16
Pollen Not available.
Air Quality Not available.
Flu Activity Sporadic
METAR PACV 231553Z 00000KT 10SM OVC013 03/02 A2975 RMK AO2 SLP076 T00330017

More Conditions Fewer Conditions

Pressure 29.76 in
Visibility 10.0 miles
Clouds Overcast 1300 ft
Dew Point 35 °F
Humidity 89%
Rainfall 0.00 in
Snow Depth Not available.
UV 0 out of 16
Pollen Not available.
Air Quality Not available.
Flu Activity Sporadic
METAR PACV 231553Z 00000KT 10SM OVC013 03/02 A2975 RMK AO2 SLP076 T00330017

More Conditions Fewer Conditions

10-Day Weather Forecast

Almanac

Astronomy

Apr. 23, 2014 Rise Set
Actual Time 6:00 AM AKDT 9:24 PM AKDT
Civil Twilight 5:09 AM AKDT 10:15 PM AKDT
Nautical Twilight 3:57 AM AKDT 11:28 PM AKDT
Astronomical Twilight 2:13 AM AKDT 1:08 AM AKDT
Moon 4:13 AM AKDT 2:13 PM AKDT
Length of Visible Light 17h 05m
Length of Day
15h 23m
Tomorrow will be 5m 28s longer.
Waning Crescent, 35% of the Moon is Illuminated
Today
Waning Crescent
Apr 29
New
May 6
First Quarter
May 14
Full
May 21
Last Quarter

Today's Extremes

State Highs State Lows

Community

  • Stunning Sunrise
    Stunning Sunrise
  • spring flowers
    spring flowers
  • Earth Day Spectrum Ove' Blue
    Earth Day Spectrum Ove' Blue
  • BARN B&W
    BARN B&W
  • April Sunset
    April Sunset

WunderPhotos

Upload Photos

1,704,322 photos uploaded!

WunderBlogs® & News

Nearby

Snow Depth

Station Depth Elevation
Upper Tsaina River 51 in 1750 ft
Moraine 6 in 2100 ft
Grandview 33 in 1100 ft
Turnagain Pass 53 in 1880 ft
Grouse Creek Divide 22 in 700 ft

Coastal Water Temperatures

Place Temperature
No Stations Reporting

Earthquake Activity

City Distance Mag. Time & Date
No recent earthquake activity has been reported nearby.
Minimum magnitude displayed is 2.5.

Nearby Weather Stations

Station Location Temp. Windchill Dew Point Humidity Wind Precip. Elev Updated Type
HADS GLACIER R TRIB NR CORDOVA , Cordova, AK 34 °F 34 °F - - North  at  - 0.00 in / hr 353 ft 7:00 AM AKDT MADIS
MesoWest MT. EYAK , Cordova, AK 35 °F 35 °F - - North  at  - 0.00 in / hr 1404 ft 7:00 AM AKDT MADIS

Show More Stations Show Fewer Stations

What do you think?

We're not finished. Please let us know what you like, what you don't like, and what you are still missing.